sensor_id;sensor_type;location;lat;lon;timestamp;P1;durP1;ratioP1;P2;durP2;ratioP2
20454;SDS011;10386;54.314;10.022;2023-03-01T00:01:03;72.03;;;15.63;;
20454;SDS011;10386;54.314;10.022;2023-03-01T00:03:32;96.30;;;19.23;;
20454;SDS011;10386;54.314;10.022;2023-03-01T00:06:00;70.67;;;16.83;;
20454;SDS011;10386;54.314;10.022;2023-03-01T00:08:27;83.03;;;16.73;;
20454;SDS011;10386;54.314;10.022;2023-03-01T00:13:39;85.30;;;17.80;;
20454;SDS011;10386;54.314;10.022;2023-03-01T00:16:07;77.93;;;15.57;;
20454;SDS011;10386;54.314;10.022;2023-03-01T00:18:36;119.43;;;18.80;;
20454;SDS011;10386;54.314;10.022;2023-03-01T00:21:04;84.30;;;16.07;;
20454;SDS011;10386;54.314;10.022;2023-03-01T00:23:34;69.03;;;15.47;;
20454;SDS011;10386;54.314;10.022;2023-03-01T00:26:01;43.97;;;13.53;;
20454;SDS011;10386;54.314;10.022;2023-03-01T00:28:28;50.87;;;14.77;;
20454;SDS011;10386;54.314;10.022;2023-03-01T00:30:55;70.67;;;16.20;;
20454;SDS011;10386;54.314;10.022;2023-03-01T00:33:22;63.57;;;15.57;;
20454;SDS011;10386;54.314;10.022;2023-03-01T00:35:48;50.10;;;14.27;;
20454;SDS011;10386;54.314;10.022;2023-03-01T00:38:15;77.77;;;14.77;;
20454;SDS011;10386;54.314;10.022;2023-03-01T00:40:42;73.77;;;15.83;;
20454;SDS011;10386;54.314;10.022;2023-03-01T00:43:09;106.37;;;13.23;;
20454;SDS011;10386;54.314;10.022;2023-03-01T00:45:36;89.40;;;14.07;;
20454;SDS011;10386;54.314;10.022;2023-03-01T00:48:03;54.80;;;12.07;;
20454;SDS011;10386;54.314;10.022;2023-03-01T00:50:31;32.40;;;12.50;;
20454;SDS011;10386;54.314;10.022;2023-03-01T00:52:58;36.27;;;12.13;;
20454;SDS011;10386;54.314;10.022;2023-03-01T00:55:24;36.03;;;11.57;;
20454;SDS011;10386;54.314;10.022;2023-03-01T00:57:51;109.03;;;14.87;;
20454;SDS011;10386;54.314;10.022;2023-03-01T01:00:19;44.60;;;11.43;;
20454;SDS011;10386;54.314;10.022;2023-03-01T01:02:46;44.93;;;12.17;;
20454;SDS011;10386;54.314;10.022;2023-03-01T01:05:14;73.47;;;13.87;;
20454;SDS011;10386;54.314;10.022;2023-03-01T01:07:41;69.93;;;13.93;;
20454;SDS011;10386;54.314;10.022;2023-03-01T01:10:07;78.23;;;15.50;;
20454;SDS011;10386;54.314;10.022;2023-03-01T01:12:35;54.47;;;11.50;;
20454;SDS011;10386;54.314;10.022;2023-03-01T01:15:01;51.47;;;11.80;;
20454;SDS011;10386;54.314;10.022;2023-03-01T01:17:28;35.27;;;11.10;;
20454;SDS011;10386;54.314;10.022;2023-03-01T01:19:55;51.30;;;11.53;;
20454;SDS011;10386;54.314;10.022;2023-03-01T01:22:21;54.30;;;11.40;;
20454;SDS011;10386;54.314;10.022;2023-03-01T01:24:48;57.10;;;12.33;;
20454;SDS011;10386;54.314;10.022;2023-03-01T01:27:15;58.07;;;11.00;;
20454;SDS011;10386;54.314;10.022;2023-03-01T01:29:42;54.70;;;12.53;;
20454;SDS011;10386;54.314;10.022;2023-03-01T01:32:08;40.33;;;11.03;;
20454;SDS011;10386;54.314;10.022;2023-03-01T01:34:35;35.80;;;10.50;;
20454;SDS011;10386;54.314;10.022;2023-03-01T01:37:02;30.33;;;10.43;;
20454;SDS011;10386;54.314;10.022;2023-03-01T01:39:29;29.50;;;9.33;;
20454;SDS011;10386;54.314;10.022;2023-03-01T01:41:56;35.07;;;9.87;;
20454;SDS011;10386;54.314;10.022;2023-03-01T01:44:23;33.07;;;9.87;;
20454;SDS011;10386;54.314;10.022;2023-03-01T01:46:53;50.40;;;10.20;;
20454;SDS011;10386;54.314;10.022;2023-03-01T01:52:01;43.30;;;11.50;;
20454;SDS011;10386;54.314;10.022;2023-03-01T01:57:48;40.73;;;11.20;;
20454;SDS011;10386;54.314;10.022;2023-03-01T02:00:22;68.60;;;12.93;;
20454;SDS011;10386;54.314;10.022;2023-03-01T02:02:55;49.20;;;11.63;;
20454;SDS011;10386;54.314;10.022;2023-03-01T02:08:57;55.53;;;11.60;;
20454;SDS011;10386;54.314;10.022;2023-03-01T02:11:27;57.97;;;12.53;;
20454;SDS011;10386;54.314;10.022;2023-03-01T02:13:55;93.17;;;12.73;;
20454;SDS011;10386;54.314;10.022;2023-03-01T02:16:22;56.90;;;11.03;;
20454;SDS011;10386;54.314;10.022;2023-03-01T02:18:49;58.77;;;12.23;;
20454;SDS011;10386;54.314;10.022;2023-03-01T02:24:05;32.03;;;10.10;;
20454;SDS011;10386;54.314;10.022;2023-03-01T02:26:54;71.13;;;10.90;;
20454;SDS011;10386;54.314;10.022;2023-03-01T02:29:22;58.23;;;11.13;;
20454;SDS011;10386;54.314;10.022;2023-03-01T02:31:50;41.27;;;11.47;;
20454;SDS011;10386;54.314;10.022;2023-03-01T02:34:23;48.43;;;10.87;;
20454;SDS011;10386;54.314;10.022;2023-03-01T02:36:56;50.23;;;10.73;;
20454;SDS011;10386;54.314;10.022;2023-03-01T02:39:27;41.90;;;10.17;;
20454;SDS011;10386;54.314;10.022;2023-03-01T02:41:58;42.67;;;10.20;;
20454;SDS011;10386;54.314;10.022;2023-03-01T02:44:26;50.50;;;10.90;;
20454;SDS011;10386;54.314;10.022;2023-03-01T02:46:53;100.57;;;12.33;;
20454;SDS011;10386;54.314;10.022;2023-03-01T02:54:36;46.40;;;9.70;;
20454;SDS011;10386;54.314;10.022;2023-03-01T02:57:09;29.13;;;9.87;;
20454;SDS011;10386;54.314;10.022;2023-03-01T02:59:36;35.03;;;9.87;;
20454;SDS011;10386;54.314;10.022;2023-03-01T03:02:18;87.90;;;10.70;;
20454;SDS011;10386;54.314;10.022;2023-03-01T03:05:04;62.50;;;10.80;;
20454;SDS011;10386;54.314;10.022;2023-03-01T03:07:43;45.27;;;10.70;;
20454;SDS011;10386;54.314;10.022;2023-03-01T03:10:13;63.57;;;10.47;;
20454;SDS011;10386;54.314;10.022;2023-03-01T03:13:02;57.00;;;10.20;;
20454;SDS011;10386;54.314;10.022;2023-03-01T03:15:31;62.17;;;10.93;;
20454;SDS011;10386;54.314;10.022;2023-03-01T03:18:03;63.57;;;10.07;;
20454;SDS011;10386;54.314;10.022;2023-03-01T03:20:31;53.17;;;10.63;;
20454;SDS011;10386;54.314;10.022;2023-03-01T03:22:59;76.10;;;10.23;;
20454;SDS011;10386;54.314;10.022;2023-03-01T03:25:26;150.43;;;12.97;;
20454;SDS011;10386;54.314;10.022;2023-03-01T03:27:55;105.07;;;12.37;;
20454;SDS011;10386;54.314;10.022;2023-03-01T03:30:26;52.67;;;10.57;;
20454;SDS011;10386;54.314;10.022;2023-03-01T03:32:55;37.33;;;11.23;;
20454;SDS011;10386;54.314;10.022;2023-03-01T03:35:24;99.73;;;11.57;;
20454;SDS011;10386;54.314;10.022;2023-03-01T03:37:54;46.63;;;11.00;;
20454;SDS011;10386;54.314;10.022;2023-03-01T03:40:31;76.67;;;11.80;;
20454;SDS011;10386;54.314;10.022;2023-03-01T03:43:03;68.33;;;11.30;;
20454;SDS011;10386;54.314;10.022;2023-03-01T03:45:31;54.23;;;10.93;;
20454;SDS011;10386;54.314;10.022;2023-03-01T03:48:03;79.57;;;11.53;;
20454;SDS011;10386;54.314;10.022;2023-03-01T03:50:31;52.90;;;11.63;;
20454;SDS011;10386;54.314;10.022;2023-03-01T03:53:02;49.50;;;10.97;;
20454;SDS011;10386;54.314;10.022;2023-03-01T03:55:31;93.67;;;10.77;;
20454;SDS011;10386;54.314;10.022;2023-03-01T03:58:01;38.37;;;9.03;;
20454;SDS011;10386;54.314;10.022;2023-03-01T04:00:33;40.73;;;9.77;;
20454;SDS011;10386;54.314;10.022;2023-03-01T04:03:01;57.93;;;9.77;;
20454;SDS011;10386;54.314;10.022;2023-03-01T04:05:28;37.10;;;10.63;;
20454;SDS011;10386;54.314;10.022;2023-03-01T04:07:56;58.93;;;10.30;;
20454;SDS011;10386;54.314;10.022;2023-03-01T04:10:30;37.03;;;9.30;;
20454;SDS011;10386;54.314;10.022;2023-03-01T04:12:58;70.30;;;11.53;;
20454;SDS011;10386;54.314;10.022;2023-03-01T04:15:26;61.33;;;10.30;;
20454;SDS011;10386;54.314;10.022;2023-03-01T04:17:53;45.87;;;10.53;;
20454;SDS011;10386;54.314;10.022;2023-03-01T04:20:23;56.50;;;10.57;;
20454;SDS011;10386;54.314;10.022;2023-03-01T04:22:59;39.37;;;10.07;;
20454;SDS011;10386;54.314;10.022;2023-03-01T04:25:45;42.40;;;10.00;;
20454;SDS011;10386;54.314;10.022;2023-03-01T04:28:12;57.63;;;10.20;;
20454;SDS011;10386;54.314;10.022;2023-03-01T04:30:39;92.77;;;12.10;;
20454;SDS011;10386;54.314;10.022;2023-03-01T04:33:06;51.40;;;9.20;;
20454;SDS011;10386;54.314;10.022;2023-03-01T04:35:35;94.93;;;10.50;;
20454;SDS011;10386;54.314;10.022;2023-03-01T04:38:03;63.00;;;9.67;;
20454;SDS011;10386;54.314;10.022;2023-03-01T04:40:30;49.70;;;9.53;;
20454;SDS011;10386;54.314;10.022;2023-03-01T04:42:57;60.00;;;8.93;;
20454;SDS011;10386;54.314;10.022;2023-03-01T04:45:24;78.30;;;11.50;;
20454;SDS011;10386;54.314;10.022;2023-03-01T04:47:51;45.20;;;10.13;;
20454;SDS011;10386;54.314;10.022;2023-03-01T04:50:18;72.33;;;10.43;;
20454;SDS011;10386;54.314;10.022;2023-03-01T04:52:49;53.43;;;9.93;;
20454;SDS011;10386;54.314;10.022;2023-03-01T04:55:16;52.90;;;10.20;;
20454;SDS011;10386;54.314;10.022;2023-03-01T04:57:43;47.73;;;8.87;;
20454;SDS011;10386;54.314;10.022;2023-03-01T05:00:11;74.43;;;10.53;;
20454;SDS011;10386;54.314;10.022;2023-03-01T05:02:56;60.97;;;9.83;;
20454;SDS011;10386;54.314;10.022;2023-03-01T05:05:25;105.43;;;10.30;;
20454;SDS011;10386;54.314;10.022;2023-03-01T05:07:55;36.27;;;9.73;;
20454;SDS011;10386;54.314;10.022;2023-03-01T05:10:24;45.80;;;8.73;;
20454;SDS011;10386;54.314;10.022;2023-03-01T05:12:52;82.00;;;9.57;;
20454;SDS011;10386;54.314;10.022;2023-03-01T05:15:19;74.67;;;10.07;;
20454;SDS011;10386;54.314;10.022;2023-03-01T05:17:48;55.70;;;8.47;;
20454;SDS011;10386;54.314;10.022;2023-03-01T05:20:16;49.63;;;7.80;;
20454;SDS011;10386;54.314;10.022;2023-03-01T05:22:43;46.57;;;9.07;;
20454;SDS011;10386;54.314;10.022;2023-03-01T05:25:10;66.37;;;9.07;;
20454;SDS011;10386;54.314;10.022;2023-03-01T05:27:37;46.53;;;8.47;;
20454;SDS011;10386;54.314;10.022;2023-03-01T05:30:03;37.93;;;9.00;;
20454;SDS011;10386;54.314;10.022;2023-03-01T05:32:40;51.83;;;9.17;;
20454;SDS011;10386;54.314;10.022;2023-03-01T05:35:12;94.13;;;10.03;;
20454;SDS011;10386;54.314;10.022;2023-03-01T05:37:41;60.00;;;8.70;;
20454;SDS011;10386;54.314;10.022;2023-03-01T05:40:13;65.70;;;9.37;;
20454;SDS011;10386;54.314;10.022;2023-03-01T05:42:43;90.10;;;9.93;;
20454;SDS011;10386;54.314;10.022;2023-03-01T05:45:20;67.93;;;9.37;;
20454;SDS011;10386;54.314;10.022;2023-03-01T05:47:48;53.73;;;8.00;;
20454;SDS011;10386;54.314;10.022;2023-03-01T05:50:17;55.83;;;7.93;;
20454;SDS011;10386;54.314;10.022;2023-03-01T05:52:47;76.67;;;9.30;;
20454;SDS011;10386;54.314;10.022;2023-03-01T05:55:19;47.00;;;9.03;;
20454;SDS011;10386;54.314;10.022;2023-03-01T05:57:47;122.90;;;9.60;;
20454;SDS011;10386;54.314;10.022;2023-03-01T06:00:14;51.90;;;8.77;;
20454;SDS011;10386;54.314;10.022;2023-03-01T06:02:42;82.60;;;9.30;;
20454;SDS011;10386;54.314;10.022;2023-03-01T06:05:10;71.13;;;8.33;;
20454;SDS011;10386;54.314;10.022;2023-03-01T06:07:40;78.10;;;10.07;;
20454;SDS011;10386;54.314;10.022;2023-03-01T06:10:08;83.23;;;8.87;;
20454;SDS011;10386;54.314;10.022;2023-03-01T06:12:37;63.87;;;8.90;;
20454;SDS011;10386;54.314;10.022;2023-03-01T06:15:05;33.53;;;7.03;;
20454;SDS011;10386;54.314;10.022;2023-03-01T06:17:34;37.60;;;7.67;;
20454;SDS011;10386;54.314;10.022;2023-03-01T06:20:11;46.10;;;7.17;;
20454;SDS011;10386;54.314;10.022;2023-03-01T06:22:40;39.50;;;7.87;;
20454;SDS011;10386;54.314;10.022;2023-03-01T06:25:13;32.47;;;7.20;;
20454;SDS011;10386;54.314;10.022;2023-03-01T06:27:42;77.70;;;9.23;;
20454;SDS011;10386;54.314;10.022;2023-03-01T06:30:10;39.97;;;8.37;;
20454;SDS011;10386;54.314;10.022;2023-03-01T06:32:38;117.53;;;10.70;;
20454;SDS011;10386;54.314;10.022;2023-03-01T06:35:11;40.67;;;7.47;;
20454;SDS011;10386;54.314;10.022;2023-03-01T06:37:40;46.53;;;8.50;;
20454;SDS011;10386;54.314;10.022;2023-03-01T06:40:12;74.00;;;9.60;;
20454;SDS011;10386;54.314;10.022;2023-03-01T06:42:40;147.77;;;12.90;;
20454;SDS011;10386;54.314;10.022;2023-03-01T06:45:09;53.83;;;7.87;;
20454;SDS011;10386;54.314;10.022;2023-03-01T06:47:36;47.73;;;8.37;;
20454;SDS011;10386;54.314;10.022;2023-03-01T06:50:03;83.53;;;9.13;;
20454;SDS011;10386;54.314;10.022;2023-03-01T06:52:30;41.33;;;7.80;;
20454;SDS011;10386;54.314;10.022;2023-03-01T06:54:57;46.03;;;8.17;;
20454;SDS011;10386;54.314;10.022;2023-03-01T06:57:25;55.63;;;8.50;;
20454;SDS011;10386;54.314;10.022;2023-03-01T06:59:52;81.87;;;9.30;;
20454;SDS011;10386;54.314;10.022;2023-03-01T07:02:19;31.83;;;8.33;;
20454;SDS011;10386;54.314;10.022;2023-03-01T07:04:46;56.23;;;8.83;;
20454;SDS011;10386;54.314;10.022;2023-03-01T07:07:12;59.17;;;8.47;;
20454;SDS011;10386;54.314;10.022;2023-03-01T07:09:39;82.00;;;9.13;;
20454;SDS011;10386;54.314;10.022;2023-03-01T07:12:06;35.60;;;8.30;;
20454;SDS011;10386;54.314;10.022;2023-03-01T07:14:34;52.70;;;8.63;;
20454;SDS011;10386;54.314;10.022;2023-03-01T07:17:00;68.33;;;8.57;;
20454;SDS011;10386;54.314;10.022;2023-03-01T07:19:27;43.63;;;7.27;;
20454;SDS011;10386;54.314;10.022;2023-03-01T07:21:54;50.10;;;7.67;;
20454;SDS011;10386;54.314;10.022;2023-03-01T07:24:22;33.83;;;8.07;;
20454;SDS011;10386;54.314;10.022;2023-03-01T07:26:49;32.07;;;7.20;;
20454;SDS011;10386;54.314;10.022;2023-03-01T07:29:17;57.90;;;8.70;;
20454;SDS011;10386;54.314;10.022;2023-03-01T07:31:44;40.13;;;8.10;;
20454;SDS011;10386;54.314;10.022;2023-03-01T07:34:11;54.07;;;7.53;;
20454;SDS011;10386;54.314;10.022;2023-03-01T07:36:38;54.20;;;7.57;;
20454;SDS011;10386;54.314;10.022;2023-03-01T07:39:05;86.23;;;8.87;;
20454;SDS011;10386;54.314;10.022;2023-03-01T07:41:32;83.17;;;8.80;;
20454;SDS011;10386;54.314;10.022;2023-03-01T07:43:59;41.60;;;7.17;;
20454;SDS011;10386;54.314;10.022;2023-03-01T07:46:26;62.77;;;8.40;;
20454;SDS011;10386;54.314;10.022;2023-03-01T07:48:53;90.27;;;8.97;;
20454;SDS011;10386;54.314;10.022;2023-03-01T07:51:20;56.83;;;8.30;;
20454;SDS011;10386;54.314;10.022;2023-03-01T07:53:47;54.53;;;7.47;;
20454;SDS011;10386;54.314;10.022;2023-03-01T07:56:14;100.50;;;9.87;;
20454;SDS011;10386;54.314;10.022;2023-03-01T07:58:44;42.30;;;7.83;;
20454;SDS011;10386;54.314;10.022;2023-03-01T08:01:16;75.73;;;7.90;;
20454;SDS011;10386;54.314;10.022;2023-03-01T08:03:45;54.17;;;7.00;;
20454;SDS011;10386;54.314;10.022;2023-03-01T08:06:13;33.07;;;7.90;;
20454;SDS011;10386;54.314;10.022;2023-03-01T08:08:42;109.30;;;9.83;;
20454;SDS011;10386;54.314;10.022;2023-03-01T08:11:13;52.10;;;7.90;;
20454;SDS011;10386;54.314;10.022;2023-03-01T08:13:41;33.47;;;7.67;;
20454;SDS011;10386;54.314;10.022;2023-03-01T08:16:13;44.07;;;9.93;;
20454;SDS011;10386;54.314;10.022;2023-03-01T08:18:40;88.97;;;8.90;;
20454;SDS011;10386;54.314;10.022;2023-03-01T08:21:10;63.00;;;8.10;;
20454;SDS011;10386;54.314;10.022;2023-03-01T08:23:38;65.33;;;7.67;;
20454;SDS011;10386;54.314;10.022;2023-03-01T08:28:36;38.27;;;7.67;;
20454;SDS011;10386;54.314;10.022;2023-03-01T08:31:13;37.47;;;7.20;;
20454;SDS011;10386;54.314;10.022;2023-03-01T08:33:51;30.63;;;6.93;;
20454;SDS011;10386;54.314;10.022;2023-03-01T08:36:29;46.40;;;8.27;;
20454;SDS011;10386;54.314;10.022;2023-03-01T08:38:59;23.43;;;7.03;;
20454;SDS011;10386;54.314;10.022;2023-03-01T08:41:26;25.83;;;6.17;;
20454;SDS011;10386;54.314;10.022;2023-03-01T08:43:54;16.70;;;6.57;;
20454;SDS011;10386;54.314;10.022;2023-03-01T08:46:29;37.40;;;6.97;;
20454;SDS011;10386;54.314;10.022;2023-03-01T08:49:02;23.40;;;6.13;;
20454;SDS011;10386;54.314;10.022;2023-03-01T08:51:30;21.03;;;7.67;;
20454;SDS011;10386;54.314;10.022;2023-03-01T08:54:06;22.60;;;6.20;;
20454;SDS011;10386;54.314;10.022;2023-03-01T08:56:36;54.37;;;7.10;;
20454;SDS011;10386;54.314;10.022;2023-03-01T08:59:03;20.80;;;5.97;;
20454;SDS011;10386;54.314;10.022;2023-03-01T09:01:30;46.77;;;7.03;;
20454;SDS011;10386;54.314;10.022;2023-03-01T09:03:57;18.00;;;6.40;;
20454;SDS011;10386;54.314;10.022;2023-03-01T09:06:24;12.00;;;5.33;;
20454;SDS011;10386;54.314;10.022;2023-03-01T09:08:50;18.27;;;5.67;;
20454;SDS011;10386;54.314;10.022;2023-03-01T09:11:19;14.77;;;5.67;;
20454;SDS011;10386;54.314;10.022;2023-03-01T09:13:48;11.07;;;5.23;;
20454;SDS011;10386;54.314;10.022;2023-03-01T09:16:16;14.90;;;5.23;;
20454;SDS011;10386;54.314;10.022;2023-03-01T09:18:48;12.17;;;5.57;;
20454;SDS011;10386;54.314;10.022;2023-03-01T09:21:17;14.83;;;5.50;;
20454;SDS011;10386;54.314;10.022;2023-03-01T09:23:56;13.63;;;5.67;;
20454;SDS011;10386;54.314;10.022;2023-03-01T09:26:24;14.00;;;6.00;;
20454;SDS011;10386;54.314;10.022;2023-03-01T09:28:52;27.50;;;5.87;;
20454;SDS011;10386;54.314;10.022;2023-03-01T09:31:23;10.67;;;4.93;;
20454;SDS011;10386;54.314;10.022;2023-03-01T09:33:51;12.77;;;5.40;;
20454;SDS011;10386;54.314;10.022;2023-03-01T09:36:20;14.10;;;5.40;;
20454;SDS011;10386;54.314;10.022;2023-03-01T09:38:48;10.07;;;5.73;;
20454;SDS011;10386;54.314;10.022;2023-03-01T09:41:26;12.40;;;5.30;;
20454;SDS011;10386;54.314;10.022;2023-03-01T09:46:48;18.57;;;5.50;;
20454;SDS011;10386;54.314;10.022;2023-03-01T09:49:17;9.40;;;5.07;;
20454;SDS011;10386;54.314;10.022;2023-03-01T09:54:42;10.50;;;5.23;;
20454;SDS011;10386;54.314;10.022;2023-03-01T09:57:53;10.67;;;5.63;;
20454;SDS011;10386;54.314;10.022;2023-03-01T10:03:21;11.43;;;5.73;;
20454;SDS011;10386;54.314;10.022;2023-03-01T10:08:43;11.83;;;5.53;;
20454;SDS011;10386;54.314;10.022;2023-03-01T10:11:28;9.60;;;5.37;;
20454;SDS011;10386;54.314;10.022;2023-03-01T10:14:01;10.13;;;5.70;;
20454;SDS011;10386;54.314;10.022;2023-03-01T10:19:05;12.20;;;5.63;;
20454;SDS011;10386;54.314;10.022;2023-03-01T10:21:40;9.20;;;5.80;;
20454;SDS011;10386;54.314;10.022;2023-03-01T10:24:14;11.77;;;5.97;;
20454;SDS011;10386;54.314;10.022;2023-03-01T10:26:53;9.33;;;5.67;;
20454;SDS011;10386;54.314;10.022;2023-03-01T10:29:40;20.03;;;6.80;;
20454;SDS011;10386;54.314;10.022;2023-03-01T10:32:13;13.07;;;6.67;;
20454;SDS011;10386;54.314;10.022;2023-03-01T10:34:40;10.40;;;6.47;;
20454;SDS011;10386;54.314;10.022;2023-03-01T10:37:12;11.00;;;5.90;;
20454;SDS011;10386;54.314;10.022;2023-03-01T10:40:24;9.93;;;6.03;;
20454;SDS011;10386;54.314;10.022;2023-03-01T10:42:37;11.60;;;5.93;;
20454;SDS011;10386;54.314;10.022;2023-03-01T10:50:40;11.30;;;6.60;;
20454;SDS011;10386;54.314;10.022;2023-03-01T10:53:18;11.03;;;6.23;;
20454;SDS011;10386;54.314;10.022;2023-03-01T10:56:04;12.73;;;6.73;;
20454;SDS011;10386;54.314;10.022;2023-03-01T10:58:34;11.73;;;6.60;;
20454;SDS011;10386;54.314;10.022;2023-03-01T11:01:04;12.20;;;6.43;;
20454;SDS011;10386;54.314;10.022;2023-03-01T11:03:43;10.67;;;6.30;;
20454;SDS011;10386;54.314;10.022;2023-03-01T11:08:41;13.93;;;6.30;;
20454;SDS011;10386;54.314;10.022;2023-03-01T11:13:40;12.53;;;6.73;;
20454;SDS011;10386;54.314;10.022;2023-03-01T11:16:24;12.80;;;6.30;;
20454;SDS011;10386;54.314;10.022;2023-03-01T11:21:36;11.53;;;6.33;;
20454;SDS011;10386;54.314;10.022;2023-03-01T11:24:12;11.07;;;6.40;;
20454;SDS011;10386;54.314;10.022;2023-03-01T11:26:42;8.97;;;5.87;;
20454;SDS011;10386;54.314;10.022;2023-03-01T11:32:14;12.07;;;6.90;;
20454;SDS011;10386;54.314;10.022;2023-03-01T11:37:40;14.77;;;7.27;;
20454;SDS011;10386;54.314;10.022;2023-03-01T11:40:15;13.47;;;7.60;;
20454;SDS011;10386;54.314;10.022;2023-03-01T11:42:50;17.03;;;7.80;;
20454;SDS011;10386;54.314;10.022;2023-03-01T11:51:20;12.40;;;6.63;;
20454;SDS011;10386;54.314;10.022;2023-03-01T11:57:03;12.60;;;7.20;;
20454;SDS011;10386;54.314;10.022;2023-03-01T12:07:47;14.97;;;7.70;;
20454;SDS011;10386;54.314;10.022;2023-03-01T12:10:20;13.70;;;7.43;;
20454;SDS011;10386;54.314;10.022;2023-03-01T12:13:26;13.97;;;7.33;;
20454;SDS011;10386;54.314;10.022;2023-03-01T12:26:45;12.50;;;7.20;;
20454;SDS011;10386;54.314;10.022;2023-03-01T12:51:10;10.83;;;6.70;;
20454;SDS011;10386;54.314;10.022;2023-03-01T12:53:51;16.27;;;9.30;;
20454;SDS011;10386;54.314;10.022;2023-03-01T12:56:22;13.87;;;7.70;;
20454;SDS011;10386;54.314;10.022;2023-03-01T13:04:53;12.80;;;6.83;;
20454;SDS011;10386;54.314;10.022;2023-03-01T13:18:26;14.10;;;7.23;;
20454;SDS011;10386;54.314;10.022;2023-03-01T13:20:54;16.57;;;8.27;;
20454;SDS011;10386;54.314;10.022;2023-03-01T13:23:25;17.03;;;9.83;;
20454;SDS011;10386;54.314;10.022;2023-03-01T13:31:02;14.80;;;7.97;;
20454;SDS011;10386;54.314;10.022;2023-03-01T13:33:34;14.73;;;7.57;;
20454;SDS011;10386;54.314;10.022;2023-03-01T13:46:53;15.37;;;7.80;;
20454;SDS011;10386;54.314;10.022;2023-03-01T13:49:41;17.27;;;8.97;;
20454;SDS011;10386;54.314;10.022;2023-03-01T13:55:23;13.73;;;7.70;;
20454;SDS011;10386;54.314;10.022;2023-03-01T13:57:53;14.07;;;7.83;;
20454;SDS011;10386;54.314;10.022;2023-03-01T14:00:31;15.40;;;7.83;;
20454;SDS011;10386;54.314;10.022;2023-03-01T14:03:12;13.97;;;8.10;;
20454;SDS011;10386;54.314;10.022;2023-03-01T14:05:40;13.93;;;7.97;;
20454;SDS011;10386;54.314;10.022;2023-03-01T14:08:23;13.93;;;7.70;;
20454;SDS011;10386;54.314;10.022;2023-03-01T14:10:58;19.90;;;9.70;;
20454;SDS011;10386;54.314;10.022;2023-03-01T14:13:58;18.13;;;9.40;;
20454;SDS011;10386;54.314;10.022;2023-03-01T14:19:30;21.27;;;10.63;;
20454;SDS011;10386;54.314;10.022;2023-03-01T14:24:59;21.57;;;9.77;;
20454;SDS011;10386;54.314;10.022;2023-03-01T14:27:33;19.90;;;9.37;;
20454;SDS011;10386;54.314;10.022;2023-03-01T14:30:13;20.63;;;9.97;;
20454;SDS011;10386;54.314;10.022;2023-03-01T14:32:47;16.67;;;8.87;;
20454;SDS011;10386;54.314;10.022;2023-03-01T14:35:19;18.67;;;9.53;;
20454;SDS011;10386;54.314;10.022;2023-03-01T14:37:48;24.60;;;9.93;;
20454;SDS011;10386;54.314;10.022;2023-03-01T14:40:23;17.67;;;9.53;;
20454;SDS011;10386;54.314;10.022;2023-03-01T14:42:53;30.97;;;11.80;;
20454;SDS011;10386;54.314;10.022;2023-03-01T14:45:21;20.17;;;9.57;;
20454;SDS011;10386;54.314;10.022;2023-03-01T14:47:51;22.97;;;10.93;;
20454;SDS011;10386;54.314;10.022;2023-03-01T14:52:50;23.17;;;10.70;;
20454;SDS011;10386;54.314;10.022;2023-03-01T14:55:33;20.40;;;9.47;;
20454;SDS011;10386;54.314;10.022;2023-03-01T14:58:06;18.67;;;9.33;;
20454;SDS011;10386;54.314;10.022;2023-03-01T15:00:38;25.70;;;9.47;;
20454;SDS011;10386;54.314;10.022;2023-03-01T15:03:13;20.07;;;9.77;;
20454;SDS011;10386;54.314;10.022;2023-03-01T15:05:46;21.60;;;9.03;;
20454;SDS011;10386;54.314;10.022;2023-03-01T15:08:21;36.83;;;9.43;;
20454;SDS011;10386;54.314;10.022;2023-03-01T15:10:58;21.93;;;8.73;;
20454;SDS011;10386;54.314;10.022;2023-03-01T15:13:32;18.63;;;9.10;;
20454;SDS011;10386;54.314;10.022;2023-03-01T15:16:23;19.43;;;8.27;;
20454;SDS011;10386;54.314;10.022;2023-03-01T15:18:48;17.37;;;8.67;;
20454;SDS011;10386;54.314;10.022;2023-03-01T15:21:18;22.20;;;8.93;;
20454;SDS011;10386;54.314;10.022;2023-03-01T15:23:50;17.67;;;8.60;;
20454;SDS011;10386;54.314;10.022;2023-03-01T15:26:26;23.63;;;8.33;;
20454;SDS011;10386;54.314;10.022;2023-03-01T15:28:57;19.10;;;8.83;;
20454;SDS011;10386;54.314;10.022;2023-03-01T15:31:27;24.03;;;9.73;;
20454;SDS011;10386;54.314;10.022;2023-03-01T15:34:11;21.03;;;9.13;;
20454;SDS011;10386;54.314;10.022;2023-03-01T15:36:47;20.77;;;8.90;;
20454;SDS011;10386;54.314;10.022;2023-03-01T15:39:25;26.30;;;9.73;;
20454;SDS011;10386;54.314;10.022;2023-03-01T15:42:08;30.17;;;9.93;;
20454;SDS011;10386;54.314;10.022;2023-03-01T15:44:39;22.17;;;9.47;;
20454;SDS011;10386;54.314;10.022;2023-03-01T15:47:23;21.07;;;9.53;;
20454;SDS011;10386;54.314;10.022;2023-03-01T15:49:53;24.13;;;10.57;;
20454;SDS011;10386;54.314;10.022;2023-03-01T15:52:26;33.23;;;12.37;;
20454;SDS011;10386;54.314;10.022;2023-03-01T15:54:59;24.93;;;10.33;;
20454;SDS011;10386;54.314;10.022;2023-03-01T15:57:28;22.03;;;10.00;;
20454;SDS011;10386;54.314;10.022;2023-03-01T15:59:56;27.37;;;10.17;;
20454;SDS011;10386;54.314;10.022;2023-03-01T16:02:23;23.87;;;9.37;;
20454;SDS011;10386;54.314;10.022;2023-03-01T16:04:50;23.30;;;9.93;;
20454;SDS011;10386;54.314;10.022;2023-03-01T16:07:17;29.63;;;10.43;;
20454;SDS011;10386;54.314;10.022;2023-03-01T16:09:44;27.83;;;10.03;;
20454;SDS011;10386;54.314;10.022;2023-03-01T16:12:14;25.40;;;9.93;;
20454;SDS011;10386;54.314;10.022;2023-03-01T16:14:42;27.17;;;10.63;;
20454;SDS011;10386;54.314;10.022;2023-03-01T16:17:09;25.70;;;10.37;;
20454;SDS011;10386;54.314;10.022;2023-03-01T16:19:37;35.70;;;11.13;;
20454;SDS011;10386;54.314;10.022;2023-03-01T16:22:04;27.23;;;10.90;;
20454;SDS011;10386;54.314;10.022;2023-03-01T16:24:31;28.73;;;11.40;;
20454;SDS011;10386;54.314;10.022;2023-03-01T16:26:58;25.47;;;11.37;;
20454;SDS011;10386;54.314;10.022;2023-03-01T16:29:24;33.33;;;11.30;;
20454;SDS011;10386;54.314;10.022;2023-03-01T16:31:51;36.60;;;11.03;;
20454;SDS011;10386;54.314;10.022;2023-03-01T16:34:18;31.83;;;10.40;;
20454;SDS011;10386;54.314;10.022;2023-03-01T16:36:48;31.53;;;10.80;;
20454;SDS011;10386;54.314;10.022;2023-03-01T16:39:15;31.30;;;11.37;;
20454;SDS011;10386;54.314;10.022;2023-03-01T16:41:43;28.47;;;10.83;;
20454;SDS011;10386;54.314;10.022;2023-03-01T16:44:10;37.33;;;14.23;;
20454;SDS011;10386;54.314;10.022;2023-03-01T16:46:36;28.63;;;11.03;;
20454;SDS011;10386;54.314;10.022;2023-03-01T16:49:03;32.97;;;13.50;;
20454;SDS011;10386;54.314;10.022;2023-03-01T16:51:30;36.43;;;14.70;;
20454;SDS011;10386;54.314;10.022;2023-03-01T16:54:00;25.47;;;11.67;;
20454;SDS011;10386;54.314;10.022;2023-03-01T16:56:28;33.63;;;10.93;;
20454;SDS011;10386;54.314;10.022;2023-03-01T16:58:56;40.07;;;11.67;;
20454;SDS011;10386;54.314;10.022;2023-03-01T17:01:23;30.33;;;12.13;;
20454;SDS011;10386;54.314;10.022;2023-03-01T17:03:52;32.80;;;12.53;;
20454;SDS011;10386;54.314;10.022;2023-03-01T17:06:20;31.23;;;11.90;;